Terminal Aerodrome Forecast
Issued by NWS

Home | Current Version | Previous Version | Text Only | Print | Product List | Glossary On
Versions: 1 2 3 4 5 6 7 8 9 10 11 12
000
FTAK31 PAJN 251100
TAFAPG
TAF
PAPG 251138Z 2512/2612 00000KT P6SM -RASN BKN030 OVC050
     FM251600 00000KT 6SM -RA BR SCT008 OVC015
     FM252100 VRB04KT P6SM VCSH SCT015 OVC030
     FM260600 VRB03KT P6SM -SHRA SCT010 OVC020
      AMD LTD TO CLD VIS AND WIND 2512/2515=

USA.gov is the U.S. government's official web portal to all federal, state and local government web resources and services.